Time;durP1;ratioP1;P1;durP2;ratioP2;P2;SDS_P1;SDS_P2;PMS_P1;PMS_P2;Temp;Humidity;BMP_temperature;BMP_pressure;BME280_temperature;BME280_humidity;BME280_pressure;Samples;Min_cycle;Max_cycle;Signal;HPM_P1;HPM_P2
2022/08/29 00:01:36;;;;;;;6.90;3.47;;;;;;;19.47;96.48;100720.84;5162323;56;1139126;-70
2022/08/29 00:06:42;;;;;;;4.95;3.52;;;;;;;19.36;96.75;100726.08;5206149;56;1138973;-69
2022/08/29 00:11:47;;;;;;;15.13;4.08;;;;;;;19.26;96.89;100717.36;5127699;57;1139021;-67
2022/08/29 00:16:54;;;;;;;7.47;3.42;;;;;;;19.23;96.91;100715.88;5167719;56;1141368;-65
2022/08/29 00:22:00;;;;;;;5.15;3.90;;;;;;;19.19;96.80;100716.38;5213285;56;1138908;-69
2022/08/29 00:27:06;;;;;;;6.05;4.42;;;;;;;19.06;97.30;100711.55;5214666;56;1138982;-69
2022/08/29 00:32:13;;;;;;;7.43;3.93;;;;;;;18.92;97.61;100711.72;5227032;56;1138998;-67
2022/08/29 00:37:20;;;;;;;4.30;3.87;;;;;;;18.75;97.64;100707.87;5227015;56;1138980;-66
2022/08/29 00:42:27;;;;;;;8.80;4.00;;;;;;;18.58;98.21;100706.52;5226688;56;1138292;-68
2022/08/29 00:47:35;;;;;;;14.38;4.58;;;;;;;18.48;98.78;100710.33;5228389;56;1139110;-72
2022/08/29 00:52:46;;;;;;;7.10;4.45;;;;;;;18.39;99.11;100712.14;5228936;56;1141058;-73
2022/08/29 00:57:56;;;;;;;11.15;4.30;;;;;;;18.31;99.29;100713.48;5228617;56;1139009;-68
2022/08/29 01:03:03;;;;;;;12.03;4.83;;;;;;;18.17;99.72;100722.15;5168341;56;1141061;-67
2022/08/29 01:08:09;;;;;;;8.93;3.92;;;;;;;18.17;99.72;100722.15;5173877;56;1141250;-68
2022/08/29 01:13:15;;;;;;;11.44;4.20;;;;;;;18.11;100.00;100721.45;5227294;56;1138990;-72
2022/08/29 01:18:21;;;;;;;5.95;4.30;;;;;;;17.97;100.00;100724.75;5227450;56;1143153;-70
2022/08/29 01:23:48;;;;;;;8.95;4.42;;;;;;;17.89;100.00;100725.04;5227519;56;1140957;-70
2022/08/29 01:28:56;;;;;;;9.98;5.00;;;;;;;17.84;100.00;100724.70;5227373;56;1139269;-72
2022/08/29 01:34:02;;;;;;;10.15;5.55;;;;;;;17.83;100.00;100734.23;5227519;56;1139281;-66
2022/08/29 01:39:09;;;;;;;9.25;5.00;;;;;;;17.77;100.00;100739.71;5227483;56;1141355;-70
2022/08/29 01:44:19;;;;;;;8.35;4.47;;;;;;;17.72;100.00;100743.35;5228154;56;1139155;-70
2022/08/29 01:49:25;;;;;;;17.05;5.10;;;;;;;17.71;100.00;100747.05;5228623;56;1139380;-70
2022/08/29 01:54:31;;;;;;;16.10;5.37;;;;;;;17.71;100.00;100746.22;5228607;56;1140940;-68
2022/08/29 01:59:37;;;;;;;6.35;4.72;;;;;;;17.66;100.00;100743.17;5227576;56;1141157;-69
2022/08/29 02:04:46;;;;;;;7.12;4.40;;;;;;;17.58;100.00;100746.09;5141495;57;1139272;-66
2022/08/29 02:09:52;;;;;;;6.87;5.20;;;;;;;17.52;100.00;100748.58;5204136;56;1139281;-70
2022/08/29 02:14:59;;;;;;;14.38;5.08;;;;;;;17.46;100.00;100743.36;5228367;56;1138839;-68
2022/08/29 02:20:08;;;;;;;7.53;4.97;;;;;;;17.41;100.00;100736.83;5224660;56;1141047;-68
2022/08/29 02:30:39;;;;;;;9.30;4.63;;;;;;;17.26;100.00;100733.89;5139809;57;1143266;-64
2022/08/29 02:35:47;;;;;;;8.60;4.90;;;;;;;17.21;100.00;100735.69;5139148;57;1141038;-69
2022/08/29 02:40:54;;;;;;;8.70;5.00;;;;;;;17.10;100.00;100734.61;5160305;57;1141019;-69
2022/08/29 02:46:01;;;;;;;8.30;4.45;;;;;;;17.04;100.00;100741.90;5160228;57;1141078;-69
2022/08/29 02:51:07;;;;;;;7.72;4.83;;;;;;;16.94;100.00;100738.48;5160367;57;1141067;-65
2022/08/29 02:56:13;;;;;;;8.13;4.12;;;;;;;16.97;100.00;100737.31;5160354;57;1141200;-72
2022/08/29 03:01:21;;;;;;;10.13;4.83;;;;;;;16.95;100.00;100743.34;5190216;56;1141039;-67
2022/08/29 03:06:27;;;;;;;8.15;4.67;;;;;;;16.92;100.00;100736.96;5242577;56;1143201;-71
2022/08/29 03:11:34;;;;;;;6.47;4.15;;;;;;;16.84;100.00;100737.72;5169864;56;1141125;-70
2022/08/29 03:16:40;;;;;;;7.90;4.30;;;;;;;16.77;100.00;100736.17;5210266;56;1141127;-66
2022/08/29 03:21:46;;;;;;;8.30;4.10;;;;;;;16.75;100.00;100745.33;5160104;57;1141109;-67
2022/08/29 03:26:53;;;;;;;14.35;4.55;;;;;;;16.69;100.00;100750.77;5160038;57;1141102;-67
2022/08/29 03:31:59;;;;;;;11.37;5.33;;;;;;;16.65;100.00;100745.91;5153666;57;1143083;-69
2022/08/29 03:37:06;;;;;;;11.18;5.70;;;;;;;16.63;100.00;100743.89;5188878;56;1143162;-67
2022/08/29 03:42:12;;;;;;;15.13;4.92;;;;;;;16.58;100.00;100748.80;5210255;56;1143248;-68
2022/08/29 03:47:18;;;;;;;18.55;5.37;;;;;;;16.52;100.00;100744.89;5149080;57;1143433;-69
2022/08/29 03:52:24;;;;;;;13.30;5.42;;;;;;;16.44;100.00;100746.16;5148871;57;1143172;-65
2022/08/29 03:57:31;;;;;;;8.37;4.23;;;;;;;16.36;100.00;100754.91;5218444;56;1143383;-69
2022/08/29 04:02:40;;;;;;;8.57;4.90;;;;;;;16.31;100.00;100767.89;5182031;56;1141114;-67
2022/08/29 04:07:53;;;;;;;11.93;5.30;;;;;;;16.13;100.00;100770.52;5174531;56;1141114;-69
2022/08/29 04:13:00;;;;;;;8.10;4.60;;;;;;;16.13;100.00;100770.52;5234998;56;1143382;-68
2022/08/29 04:18:08;;;;;;;12.97;4.40;;;;;;;16.10;100.00;100776.63;5194807;56;1141131;-70
2022/08/29 04:23:14;;;;;;;9.25;4.33;;;;;;;16.04;100.00;100771.91;5199208;56;1143262;-66
2022/08/29 04:28:22;;;;;;;12.83;5.27;;;;;;;16.00;100.00;100772.69;5163698;56;1141091;-66
2022/08/29 04:33:28;;;;;;;8.10;4.50;;;;;;;15.98;100.00;100783.16;5148608;57;1143189;-66
2022/08/29 04:38:34;;;;;;;21.93;5.10;;;;;;;15.96;100.00;100789.13;5148808;57;1141094;-67
2022/08/29 04:43:39;;;;;;;9.90;3.97;;;;;;;15.96;100.00;100780.63;5192469;56;1143192;-65
2022/08/29 04:48:46;;;;;;;12.23;4.67;;;;;;;15.98;100.00;100781.33;5235206;56;1141062;-66
2022/08/29 04:53:53;;;;;;;11.53;4.80;;;;;;;15.98;100.00;100779.16;5234889;56;1143197;-65
2022/08/29 04:58:59;;;;;;;14.97;4.03;;;;;;;16.01;100.00;100782.87;5234827;56;1143177;-69
2022/08/29 05:04:06;;;;;;;9.57;3.67;;;;;;;16.03;100.00;100786.23;5166733;56;1143161;-65
2022/08/29 05:09:11;;;;;;;10.37;4.63;;;;;;;16.06;100.00;100783.24;5184391;56;1141078;-67
2022/08/29 05:14:17;;;;;;;11.20;4.23;;;;;;;16.06;100.00;100792.09;5160505;56;1143152;-65
2022/08/29 05:19:24;;;;;;;9.70;3.73;;;;;;;15.95;100.00;100785.63;5177438;56;1143168;-63
2022/08/29 05:24:30;;;;;;;6.57;3.07;;;;;;;16.00;100.00;100797.19;5190415;56;1139242;-66
2022/08/29 05:29:45;;;;;;;7.43;3.43;;;;;;;16.03;100.00;100809.75;5183128;56;1139268;-68
2022/08/29 05:34:51;;;;;;;9.33;3.73;;;;;;;16.07;100.00;100804.94;5202937;56;1138982;-70
2022/08/29 05:39:57;;;;;;;10.50;4.00;;;;;;;16.18;100.00;100806.10;5238542;56;1138668;-66
2022/08/29 05:45:06;;;;;;;8.23;3.47;;;;;;;16.28;100.00;100810.89;5183293;56;1141131;-70
2022/08/29 05:50:15;;;;;;;17.80;4.37;;;;;;;16.42;100.00;100810.88;5165212;57;1138966;-71
2022/08/29 05:55:19;;;;;;;6.53;2.90;;;;;;;16.51;100.00;100816.15;5164908;57;1141248;-72
2022/08/29 06:00:25;;;;;;;12.33;3.17;;;;;;;16.59;100.00;100817.24;5144308;56;1139053;-68
2022/08/29 06:05:32;;;;;;;11.63;3.83;;;;;;;16.59;100.00;100823.92;5251508;56;1141158;-72
2022/08/29 06:10:42;;;;;;;9.43;3.40;;;;;;;16.59;100.00;100827.92;5251695;56;1141308;-72
2022/08/29 06:15:48;;;;;;;10.20;4.37;;;;;;;16.61;100.00;100827.28;5229943;56;1139058;-67
2022/08/29 06:20:54;;;;;;;11.83;2.87;;;;;;;16.69;100.00;100825.56;5202604;56;1141340;-72
2022/08/29 06:26:01;;;;;;;9.00;3.40;;;;;;;16.88;100.00;100815.23;5200005;56;1141139;-74
2022/08/29 06:31:14;;;;;;;5.47;2.53;;;;;;;16.94;100.00;100829.83;5172306;56;1139093;-68
2022/08/29 06:36:20;;;;;;;8.03;3.37;;;;;;;16.94;100.00;100836.51;5163444;56;1137005;-68
2022/08/29 06:41:27;;;;;;;95.83;10.07;;;;;;;16.84;100.00;100843.23;5170092;56;1141038;-68
2022/08/29 06:46:40;;;;;;;18.53;4.50;;;;;;;16.76;100.00;100848.02;5251790;56;1145281;-70
2022/08/29 06:51:50;;;;;;;11.00;3.17;;;;;;;16.78;100.00;100849.20;5251314;56;1143241;-67
2022/08/29 06:56:58;;;;;;;9.83;3.30;;;;;;;16.71;100.00;100861.47;5235383;56;1143114;-70
2022/08/29 07:02:05;;;;;;;17.77;4.60;;;;;;;16.68;100.00;100862.59;5162226;57;1141122;-70
2022/08/29 07:07:11;;;;;;;11.93;4.77;;;;;;;16.71;100.00;100860.13;5162408;57;1143226;-68
2022/08/29 07:12:18;;;;;;;15.50;4.15;;;;;;;16.98;100.00;100868.09;5162361;57;1143169;-73
2022/08/29 07:17:24;;;;;;;15.70;4.03;;;;;;;17.36;100.00;100866.12;5162320;57;1143198;-67
2022/08/29 07:22:30;;;;;;;15.93;4.40;;;;;;;17.59;100.00;100877.99;5162402;56;1143180;-70
2022/08/29 07:27:36;;;;;;;7.55;3.77;;;;;;;17.83;100.00;100874.20;5156371;56;1143154;-64
2022/08/29 07:32:44;;;;;;;8.30;2.72;;;;;;;17.82;100.00;100871.19;5162372;57;1141130;-68
2022/08/29 07:37:51;;;;;;;11.78;3.83;;;;;;;17.81;100.00;100875.35;5235137;56;1141103;-69
2022/08/29 07:42:57;;;;;;;13.22;4.40;;;;;;;17.89;100.00;100879.41;5235047;56;1143021;-71
2022/08/29 07:48:03;;;;;;;11.73;4.10;;;;;;;18.13;100.00;100866.69;5234983;56;1143283;-72
2022/08/29 07:53:09;;;;;;;10.28;4.47;;;;;;;18.44;100.00;100854.45;5234942;56;1143425;-68
2022/08/29 07:58:15;;;;;;;10.30;3.25;;;;;;;18.81;100.00;100851.89;5235092;56;1143250;-68
2022/08/29 08:03:21;;;;;;;12.00;3.72;;;;;;;19.11;100.00;100857.97;5169890;56;1143426;-67
2022/08/29 08:08:27;;;;;;;8.40;3.42;;;;;;;19.17;98.47;100864.02;5161040;57;1143236;-70
2022/08/29 08:13:34;;;;;;;9.98;3.72;;;;;;;19.21;99.96;100859.17;5148700;57;1138999;-68
2022/08/29 08:18:42;;;;;;;8.05;3.02;;;;;;;19.52;99.49;100870.11;5176423;56;1138967;-68
2022/08/29 08:23:49;;;;;;;9.45;3.02;;;;;;;19.69;96.52;100873.12;5235032;56;1138984;-69
2022/08/29 08:28:55;;;;;;;6.67;2.90;;;;;;;19.73;95.01;100869.57;5234795;56;1139179;-67
2022/08/29 08:34:01;;;;;;;11.25;3.20;;;;;;;19.96;93.65;100873.23;5190912;56;1138952;-68
2022/08/29 08:39:06;;;;;;;6.75;3.40;;;;;;;20.13;92.39;100882.94;5234884;56;1141543;-65
2022/08/29 08:44:39;;;;;;;12.63;3.20;;;;;;;20.15;91.36;100879.58;5181490;56;1138944;-69
2022/08/29 08:50:13;;;;;;;10.48;4.00;;;;;;;20.20;93.16;100881.22;5169787;56;1141107;-72
2022/08/29 08:55:29;;;;;;;11.00;3.30;;;;;;;20.22;92.36;100880.55;5235015;56;1139438;-67
2022/08/29 09:00:42;;;;;;;9.73;3.80;;;;;;;20.43;91.70;100887.23;5222415;56;1138938;-70
2022/08/29 09:06:15;;;;;;;15.25;4.05;;;;;;;20.58;91.94;100883.64;5154892;56;1136848;-70
2022/08/29 09:11:28;;;;;;;7.57;3.37;;;;;;;20.86;89.86;100888.53;5128966;57;1139062;-67
2022/08/29 09:16:47;;;;;;;7.62;3.00;;;;;;;20.77;87.48;100888.27;5142146;57;1136952;-73
2022/08/29 09:21:57;;;;;;;10.08;3.35;;;;;;;20.73;86.64;100885.08;5235715;56;1134855;-68
2022/08/29 09:27:03;;;;;;;8.53;3.30;;;;;;;20.66;84.98;100876.87;5219170;56;1141132;-69
2022/08/29 09:32:14;;;;;;;12.80;3.43;;;;;;;20.77;86.68;100886.41;5140046;56;1139054;-66
2022/08/29 09:37:33;;;;;;;8.10;3.45;;;;;;;20.77;85.23;100884.23;5155924;57;1141163;-67
2022/08/29 09:42:42;;;;;;;12.00;3.17;;;;;;;20.93;85.04;100882.25;5160357;57;1139065;-66
2022/08/29 09:47:48;;;;;;;10.25;3.60;;;;;;;21.01;84.74;100891.63;5208643;56;1141060;-70
2022/08/29 09:53:03;;;;;;;10.28;3.00;;;;;;;21.01;84.92;100888.94;5211830;56;1141293;-65
2022/08/29 09:58:23;;;;;;;5.03;2.58;;;;;;;21.01;83.04;100885.41;5160662;57;1140903;-66
2022/08/29 10:03:35;;;;;;;11.08;3.55;;;;;;;21.08;83.83;100892.28;5227970;56;1139302;-71
2022/08/29 10:08:44;;;;;;;5.97;2.50;;;;;;;21.23;84.47;100883.30;5206387;56;1140913;-72
2022/08/29 10:14:00;;;;;;;11.50;2.83;;;;;;;21.63;79.07;100874.04;5190762;56;1139041;-68
2022/08/29 10:19:17;;;;;;;11.08;2.52;;;;;;;21.89;80.33;100875.47;5188402;56;1141142;-67
2022/08/29 10:24:42;;;;;;;13.68;3.05;;;;;;;21.87;78.52;100876.99;5182431;56;1141309;-68
2022/08/29 10:30:08;;;;;;;11.70;2.62;;;;;;;21.58;78.92;100864.83;5175520;56;1141364;-69
2022/08/29 10:35:29;;;;;;;8.98;3.05;;;;;;;21.63;80.71;100878.08;5175787;56;1140977;-68
2022/08/29 10:40:46;;;;;;;8.03;2.40;;;;;;;21.55;79.18;100878.13;5165965;56;1136902;-70
2022/08/29 10:45:58;;;;;;;5.85;2.42;;;;;;;21.73;80.23;100871.91;5167153;56;1136912;-72
2022/08/29 10:51:17;;;;;;;8.68;2.60;;;;;;;21.72;79.01;100878.31;5188307;56;1136989;-68
2022/08/29 10:56:39;;;;;;;5.62;2.47;;;;;;;21.72;79.01;100878.31;5149262;57;1137142;-69
2022/08/29 11:01:59;;;;;;;3.80;2.20;;;;;;;21.72;80.75;100874.78;5149351;57;1136916;-68
2022/08/29 11:07:21;;;;;;;9.88;3.25;;;;;;;22.02;77.61;100870.31;5161799;56;1136931;-68
2022/08/29 11:12:46;;;;;;;6.10;2.40;;;;;;;22.03;78.36;100873.33;5150156;56;1138882;-71
2022/08/29 11:17:57;;;;;;;7.03;2.12;;;;;;;21.86;77.11;100864.55;5206261;56;1138930;-68
2022/08/29 11:23:22;;;;;;;9.73;3.22;;;;;;;21.89;74.72;100876.81;5234526;56;1138986;-70
2022/08/29 11:28:49;;;;;;;7.97;2.50;;;;;;;21.86;76.24;100878.52;5235240;56;1138966;-69
2022/08/29 11:34:14;;;;;;;3.17;2.67;;;;;;;21.98;75.21;100879.77;5173578;56;1139078;-73
2022/08/29 11:39:24;;;;;;;6.33;2.52;;;;;;;22.03;73.15;100888.98;5213575;56;1139077;-67
2022/08/29 11:44:39;;;;;;;6.47;2.27;;;;;;;21.81;75.58;100891.21;5242845;56;1139003;-69
2022/08/29 11:49:48;;;;;;;3.77;1.90;;;;;;;21.78;75.49;100886.19;5239734;56;1138996;-69
2022/08/29 11:55:13;;;;;;;13.80;3.00;;;;;;;21.72;75.88;100892.29;5240066;56;1139049;-73
2022/08/29 12:00:38;;;;;;;7.97;2.75;;;;;;;21.62;77.16;100891.20;5231617;56;1141163;-69
2022/08/29 12:05:54;;;;;;;5.28;2.37;;;;;;;21.63;78.16;100890.19;5157303;57;1139063;-68
2022/08/29 12:11:01;;;;;;;10.20;2.42;;;;;;;21.59;77.16;100891.56;5244533;56;1137394;-72
2022/08/29 12:16:09;;;;;;;9.73;2.83;;;;;;;21.66;77.61;100890.34;5249189;56;1138893;-69
2022/08/29 12:21:47;;;;;;;4.42;2.00;;;;;;;21.65;75.46;100900.78;5249213;56;1136972;-73
2022/08/29 12:26:50;;;;;;;3.00;1.98;;;;;;;21.53;75.61;100896.85;5248643;56;1136899;-68
2022/08/29 12:32:12;;;;;;;8.90;2.65;;;;;;;21.46;76.09;100903.95;5249221;56;1137082;-71
2022/08/29 12:37:43;;;;;;;6.37;2.07;;;;;;;21.50;77.42;100907.97;5249317;56;1137023;-69
2022/08/29 12:43:17;;;;;;;3.33;2.10;;;;;;;21.54;76.75;100901.22;5249604;56;1139180;-68
2022/08/29 12:48:36;;;;;;;4.62;2.17;;;;;;;21.54;76.95;100892.61;5191201;56;1138913;-70
2022/08/29 12:53:44;;;;;;;5.60;1.90;;;;;;;21.50;76.71;100899.39;5165141;57;1139032;-72
2022/08/29 12:58:56;;;;;;;9.75;2.40;;;;;;;21.39;76.18;100910.05;5078669;58;1139083;-68
2022/08/29 13:04:18;;;;;;;4.08;2.20;;;;;;;21.32;76.87;100915.84;5165068;57;1138990;-69
2022/08/29 13:09:43;;;;;;;3.08;2.00;;;;;;;21.31;76.76;100909.28;5162228;57;1138847;-67
2022/08/29 13:14:53;;;;;;;4.20;2.10;;;;;;;21.29;76.47;100914.84;5165215;56;1139317;-66
2022/08/29 13:20:39;;;;;;;4.28;1.87;;;;;;;21.27;77.48;100918.22;5212711;56;1138993;-68
2022/08/29 13:26:11;;;;;;;3.33;2.45;;;;;;;21.21;77.43;100921.64;5165088;56;1139025;-70
2022/08/29 13:31:21;;;;;;;5.20;2.55;;;;;;;21.21;78.17;100910.04;5188510;56;1137042;-68
2022/08/29 13:37:01;;;;;;;6.53;2.20;;;;;;;21.23;78.61;100919.61;5239802;56;1137011;-74
2022/08/29 13:42:18;;;;;;;4.53;2.47;;;;;;;21.20;78.32;100909.70;5174504;56;1136858;-69
2022/08/29 13:47:32;;;;;;;3.80;2.45;;;;;;;21.16;80.02;100909.19;5191378;56;1137126;-69
2022/08/29 13:52:38;;;;;;;4.80;2.20;;;;;;;21.25;80.85;100914.86;5192427;56;1136888;-72
2022/08/29 13:57:47;;;;;;;6.65;2.33;;;;;;;21.22;81.56;100909.86;5146117;56;1135068;-72
2022/08/29 14:02:53;;;;;;;7.48;2.08;;;;;;;21.19;81.75;100914.72;5193691;56;1139205;-70
2022/08/29 14:07:59;;;;;;;5.02;2.14;;;;;;;21.19;82.12;100908.00;5017256;57;1138899;-70
2022/08/29 14:13:05;;;;;;;5.35;2.30;;;;;;;21.12;81.98;100907.02;5190593;56;1138947;-69
2022/08/29 14:18:11;;;;;;;3.60;2.27;;;;;;;21.06;83.02;100909.94;5227491;56;1138907;-71
2022/08/29 14:23:17;;;;;;;13.30;1.98;;;;;;;21.12;83.68;100914.59;5149276;57;1139504;-71
2022/08/29 14:28:35;;;;;;;2.20;1.98;;;;;;;21.13;83.74;100912.23;5185941;56;1140919;-71
2022/08/29 14:33:41;;;;;;;2.37;1.90;;;;;;;21.23;83.86;100908.85;5189296;56;1138905;-69
2022/08/29 14:38:47;;;;;;;1.95;1.65;;;;;;;21.35;82.97;100906.06;5198111;56;1138930;-69
2022/08/29 14:43:53;;;;;;;1.77;1.67;;;;;;;21.35;81.57;100902.03;5193879;56;1139022;-74
2022/08/29 14:49:00;;;;;;;2.50;1.65;;;;;;;21.27;82.00;100904.77;5198408;56;1138888;-71
2022/08/29 14:54:06;;;;;;;1.50;1.40;;;;;;;21.27;82.60;100898.55;5181293;56;1139093;-71
2022/08/29 14:59:13;;;;;;;2.60;1.95;;;;;;;21.34;82.08;100908.42;5183314;56;1139125;-65
2022/08/29 15:04:18;;;;;;;2.56;2.32;;;;;;;21.35;82.09;100893.12;5180710;56;1139012;-71
2022/08/29 15:09:25;;;;;;;2.10;1.90;;;;;;;21.56;82.87;100885.70;5186783;56;1139019;-73
2022/08/29 15:14:33;;;;;;;3.85;2.15;;;;;;;21.79;81.65;100883.82;5183437;56;1138967;-71
2022/08/29 15:19:39;;;;;;;2.86;2.30;;;;;;;21.79;80.14;100885.17;5177730;56;1139178;-73
2022/08/29 15:24:44;;;;;;;4.03;2.05;;;;;;;21.74;79.88;100886.21;5189794;56;1139103;-67
2022/08/29 15:29:50;;;;;;;3.47;2.22;;;;;;;21.54;80.20;100888.56;5162105;56;1139260;-72
2022/08/29 15:34:56;;;;;;;3.60;2.30;;;;;;;21.53;80.63;100880.70;5148811;57;1139278;-69
2022/08/29 15:40:02;;;;;;;2.60;2.00;;;;;;;21.55;81.21;100884.02;5154947;56;1138989;-71
2022/08/29 15:45:09;;;;;;;3.15;2.45;;;;;;;21.52;80.93;100885.76;5147190;57;1138950;-71
2022/08/29 15:50:15;;;;;;;4.58;2.47;;;;;;;21.41;80.53;100891.88;5133636;56;1139021;-73
2022/08/29 15:55:21;;;;;;;1.82;1.72;;;;;;;21.31;81.15;100882.38;5157211;56;1138974;-72
2022/08/29 16:00:28;;;;;;;3.35;2.35;;;;;;;21.28;81.60;100888.11;5164153;56;1139013;-74
2022/08/29 16:05:37;;;;;;;3.70;2.40;;;;;;;21.22;81.97;100888.84;5235058;56;1139133;-70
2022/08/29 16:10:44;;;;;;;2.80;2.60;;;;;;;21.24;82.36;100883.59;5158186;56;1138912;-73
2022/08/29 16:15:50;;;;;;;1.77;1.67;;;;;;;21.33;82.35;100870.42;5171503;56;1139014;-70
2022/08/29 16:20:56;;;;;;;2.72;2.30;;;;;;;21.30;81.42;100872.63;5234850;56;1139020;-73
2022/08/29 16:26:02;;;;;;;3.75;1.95;;;;;;;21.22;82.04;100886.16;5235091;56;1138955;-72
2022/08/29 16:31:08;;;;;;;7.58;2.12;;;;;;;21.11;82.52;100889.20;5235067;56;1139137;-70
2022/08/29 16:36:15;;;;;;;2.45;2.27;;;;;;;21.08;83.17;100889.59;5234948;56;1139009;-71
2022/08/29 16:41:23;;;;;;;3.42;1.90;;;;;;;21.00;83.31;100886.43;5208594;56;1139209;-66
2022/08/29 16:46:30;;;;;;;3.22;2.20;;;;;;;20.99;83.88;100891.47;5203982;56;1138900;-68
2022/08/29 16:51:35;;;;;;;7.78;2.52;;;;;;;20.85;84.13;100894.42;5246413;56;1139120;-72
2022/08/29 16:56:41;;;;;;;4.37;2.40;;;;;;;20.77;84.42;100889.09;5246337;56;1139098;-68
2022/08/29 17:01:50;;;;;;;3.67;2.83;;;;;;;20.72;85.02;100883.41;5208025;56;1139028;-68
2022/08/29 17:06:56;;;;;;;2.40;2.20;;;;;;;20.62;85.16;100887.63;5159776;57;1136881;-73
2022/08/29 17:17:07;;;;;;;9.98;2.45;;;;;;;20.54;85.75;100897.09;5204592;56;1138991;-69
2022/08/29 17:22:15;;;;;;;3.42;2.95;;;;;;;20.52;85.96;100899.61;5181698;56;1137133;-73
2022/08/29 17:27:21;;;;;;;3.55;2.42;;;;;;;20.50;86.03;100898.44;5246507;56;1136923;-68
2022/08/29 17:32:27;;;;;;;15.88;2.75;;;;;;;20.45;86.43;100899.48;5247190;56;1137220;-70
2022/08/29 17:37:34;;;;;;;5.37;2.30;;;;;;;20.43;86.66;100903.35;5247126;56;1139030;-65
2022/08/29 17:42:42;;;;;;;3.27;1.98;;;;;;;20.41;86.76;100901.34;5220325;56;1136967;-73
2022/08/29 17:47:47;;;;;;;16.62;2.58;;;;;;;20.31;87.02;100901.02;5160567;57;1136971;-72
2022/08/29 17:52:54;;;;;;;3.42;1.92;;;;;;;20.22;87.14;100901.19;5160374;57;1139035;-69
2022/08/29 17:58:00;;;;;;;2.10;1.82;;;;;;;20.13;87.71;100902.23;5160520;57;1136952;-69
2022/08/29 18:03:06;;;;;;;6.78;2.90;;;;;;;20.03;88.00;100905.93;5125454;57;1136915;-72
2022/08/29 18:08:12;;;;;;;5.35;2.87;;;;;;;19.99;88.29;100909.98;5193874;56;1136879;-72
2022/08/29 18:13:18;;;;;;;6.83;2.30;;;;;;;19.95;88.88;100911.83;5246902;56;1136923;-73
2022/08/29 18:18:24;;;;;;;2.35;2.05;;;;;;;19.88;89.43;100910.31;5180092;56;1137277;-73
2022/08/29 18:23:32;;;;;;;4.87;2.83;;;;;;;19.80;90.55;100917.05;5160235;57;1137289;-69
2022/08/29 18:28:39;;;;;;;7.85;2.90;;;;;;;19.73;92.40;100924.59;5160266;57;1134895;-69
2022/08/29 18:33:46;;;;;;;2.70;2.27;;;;;;;19.65;92.40;100941.55;5183183;56;1134843;-68
2022/08/29 18:38:55;;;;;;;4.87;2.87;;;;;;;19.61;93.92;100942.88;5193785;56;1139153;-73
2022/08/29 18:44:01;;;;;;;4.87;2.60;;;;;;;19.58;94.13;100952.59;5191489;56;1139350;-69
2022/08/29 18:49:07;;;;;;;6.53;2.53;;;;;;;19.55;94.91;100956.48;5173999;56;1139274;-70
2022/08/29 18:54:15;;;;;;;3.12;1.80;;;;;;;19.60;94.45;100961.33;5183842;56;1138865;-73
2022/08/29 18:59:22;;;;;;;6.28;1.98;;;;;;;19.63;95.45;100965.02;5178123;56;1139013;-73
2022/08/29 19:04:28;;;;;;;3.80;2.40;;;;;;;19.62;95.22;100972.73;5146349;56;1138962;-73
2022/08/29 19:09:34;;;;;;;4.70;2.62;;;;;;;19.52;95.19;100955.46;5176902;56;1138990;-70
2022/08/29 19:14:42;;;;;;;8.08;4.28;;;;;;;19.52;95.19;100955.46;5179317;56;1138961;-73
2022/08/29 19:25:12;;;;;;;5.42;3.65;;;;;;;19.38;96.53;100964.63;5187644;56;1139281;-72
2022/08/29 19:30:19;;;;;;;3.65;2.20;;;;;;;19.31;97.13;100973.83;5128209;56;1139097;-75
2022/08/29 19:35:26;;;;;;;3.00;2.58;;;;;;;19.26;97.35;100978.33;5155245;56;1139037;-73
2022/08/29 19:40:32;;;;;;;4.62;2.08;;;;;;;19.20;98.58;100973.64;5152573;56;1139046;-69
2022/08/29 19:45:40;;;;;;;5.85;2.62;;;;;;;19.16;98.92;100970.94;5233756;56;1139051;-72
2022/08/29 19:50:47;;;;;;;2.72;2.20;;;;;;;19.13;100.00;100967.74;5246602;56;1139235;-68
2022/08/29 19:55:53;;;;;;;5.65;2.25;;;;;;;19.09;100.00;100980.66;5222419;56;1141358;-74
2022/08/29 20:01:00;;;;;;;3.60;2.70;;;;;;;19.05;100.00;100978.45;5200288;56;1141362;-74
2022/08/29 20:06:07;;;;;;;5.40;2.42;;;;;;;18.96;100.00;100977.57;5199051;56;1141042;-67
2022/08/29 20:11:16;;;;;;;4.55;2.85;;;;;;;18.88;100.00;100977.05;5182813;56;1141132;-69
2022/08/29 20:16:27;;;;;;;4.92;3.20;;;;;;;18.85;100.00;100978.71;5204685;56;1141191;-70
2022/08/29 20:21:35;;;;;;;5.12;4.08;;;;;;;18.85;100.00;100979.21;5222670;56;1141290;-70
2022/08/29 20:26:41;;;;;;;4.05;2.42;;;;;;;18.80;100.00;100974.83;5214015;56;1141254;-70
2022/08/29 20:31:48;;;;;;;2.90;2.22;;;;;;;18.77;100.00;100974.67;5190380;56;1140454;-70
2022/08/29 20:37:12;;;;;;;4.78;2.92;;;;;;;18.77;100.00;100981.88;5246395;56;1140991;-70
2022/08/29 20:42:23;;;;;;;2.70;2.33;;;;;;;18.72;100.00;100986.86;5226603;56;1141055;-72
2022/08/29 20:47:29;;;;;;;3.52;2.35;;;;;;;18.78;100.00;100991.09;5159825;57;1141176;-70
2022/08/29 20:52:36;;;;;;;4.37;3.10;;;;;;;18.79;100.00;100998.10;5125314;57;1139015;-70
2022/08/29 20:57:42;;;;;;;2.75;2.50;;;;;;;18.78;100.00;101000.97;5159840;57;1139022;-71
2022/08/29 21:08:21;;;;;;;5.45;3.25;;;;;;;18.79;100.00;100997.30;5213188;56;1138902;-71
2022/08/29 21:13:27;;;;;;;3.75;2.87;;;;;;;18.81;100.00;101001.97;5160254;56;1138986;-67
2022/08/29 21:18:33;;;;;;;4.92;2.80;;;;;;;18.83;100.00;101002.16;5230016;56;1139744;-69
2022/08/29 21:23:40;;;;;;;3.47;3.05;;;;;;;18.84;100.00;101005.17;5246746;56;1139226;-72
2022/08/29 21:28:45;;;;;;;2.85;2.37;;;;;;;18.88;100.00;101007.88;5246877;56;1139128;-69
2022/08/29 21:33:52;;;;;;;6.12;3.17;;;;;;;18.83;100.00;101011.53;5212370;56;1139039;-70
2022/08/29 21:39:00;;;;;;;2.95;2.70;;;;;;;18.85;100.00;101012.72;5226876;56;1139214;-71
2022/08/29 21:44:06;;;;;;;3.15;2.95;;;;;;;18.85;100.00;101015.39;5212415;56;1139297;-70
2022/08/29 21:49:17;;;;;;;4.35;3.27;;;;;;;18.91;100.00;101021.47;5200041;56;1138973;-70
2022/08/29 21:54:23;;;;;;;4.62;2.08;;;;;;;18.94;100.00;101017.94;5189288;56;1137366;-73
2022/08/29 21:59:29;;;;;;;2.34;2.04;;;;;;;18.92;100.00;101020.47;5231023;56;1141297;-70
2022/08/29 22:04:35;;;;;;;2.58;2.18;;;;;;;18.90;100.00;101030.00;5247226;56;1141026;-67
2022/08/29 22:09:41;;;;;;;2.63;2.07;;;;;;;18.85;100.00;101032.31;5188024;56;1141576;-68
2022/08/29 22:20:10;;;;;;;3.52;2.15;;;;;;;18.89;100.00;101039.05;5247077;56;1143389;-68
2022/08/29 22:25:16;;;;;;;1.65;1.55;;;;;;;18.88;100.00;101049.92;5210787;56;1141104;-72
2022/08/29 22:30:22;;;;;;;2.00;1.90;;;;;;;18.83;100.00;101055.75;5246745;56;1141194;-74
2022/08/29 22:35:28;;;;;;;1.60;1.40;;;;;;;18.73;100.00;101051.02;5247068;56;1141258;-69
2022/08/29 22:40:35;;;;;;;5.65;1.45;;;;;;;18.69;100.00;101059.52;5246459;56;1141705;-70
2022/08/29 22:45:44;;;;;;;2.35;1.70;;;;;;;18.70;100.00;101055.34;5161557;56;1141278;-73
2022/08/29 22:50:50;;;;;;;1.85;1.70;;;;;;;18.65;100.00;101053.63;5148934;57;1141110;-70
2022/08/29 22:55:55;;;;;;;2.75;1.72;;;;;;;18.69;100.00;101055.50;5182611;56;1141036;-74
2022/08/29 23:01:02;;;;;;;4.62;1.75;;;;;;;18.71;100.00;101064.22;5235025;56;1141040;-69
2022/08/29 23:06:08;;;;;;;4.47;1.60;;;;;;;18.69;100.00;101061.70;5235308;56;1141087;-70
2022/08/29 23:11:15;;;;;;;1.52;1.42;;;;;;;18.72;100.00;101069.43;5149356;56;1141148;-69
2022/08/29 23:16:22;;;;;;;3.25;1.30;;;;;;;18.86;100.00;101071.52;5179674;56;1141468;-74
2022/08/29 23:21:30;;;;;;;2.67;1.20;;;;;;;18.96;100.00;101068.71;5235137;56;1141487;-68
2022/08/29 23:26:36;;;;;;;3.67;1.42;;;;;;;18.96;100.00;101066.03;5234800;56;1141286;-74
2022/08/29 23:31:42;;;;;;;1.30;1.17;;;;;;;18.91;100.00;101073.73;5234914;56;1141422;-72
2022/08/29 23:36:48;;;;;;;1.30;1.20;;;;;;;18.90;100.00;101078.75;5234957;56;1141509;-75
2022/08/29 23:41:54;;;;;;;3.90;1.37;;;;;;;18.80;100.00;101080.68;5221667;56;1141006;-71